Time;durP1;ratioP1;P1;durP2;ratioP2;P2;SDS_P1;SDS_P2;PMS_P1;PMS_P2;Temp;Humidity;BMP_temperature;BMP_pressure;BME280_temperature;BME280_humidity;BME280_pressure;Samples;Min_cycle;Max_cycle;Signal;HPM_P1;HPM_P2
2022/08/23 00:01:59;;;;;;;2.70;0.90;;;;;;;23.02;81.09;99853.09;5000412;28;20058;-93
2022/08/23 00:04:31;;;;;;;4.25;0.73;;;;;;;22.67;84.64;99855.50;4999003;28;20066;-86
2022/08/23 00:06:58;;;;;;;6.30;0.77;;;;;;;22.41;87.04;99849.03;5000222;28;20042;-90
2022/08/23 00:09:25;;;;;;;3.53;1.00;;;;;;;22.32;88.49;99847.06;4983552;28;20122;-84
2022/08/23 00:12:11;;;;;;;1.88;1.10;;;;;;;22.40;87.56;99849.31;4966278;28;20042;-91
2022/08/23 00:14:40;;;;;;;3.67;1.15;;;;;;;22.52;87.23;99848.06;4985020;28;20039;-90
2022/08/23 00:17:08;;;;;;;1.85;1.05;;;;;;;22.40;88.39;99843.91;4997745;28;20030;-91
2022/08/23 00:19:35;;;;;;;3.80;1.20;;;;;;;22.46;88.63;99848.28;5002569;28;20042;-82
2022/08/23 00:22:00;;;;;;;5.07;0.73;;;;;;;22.42;89.58;99847.16;5014888;28;20148;-88
2022/08/23 00:24:26;;;;;;;3.92;1.10;;;;;;;22.50;89.05;99855.63;4980258;28;20035;-81
2022/08/23 00:27:00;;;;;;;3.60;1.15;;;;;;;22.31;90.93;99853.53;4995532;28;20030;-89
2022/08/23 00:29:32;;;;;;;3.05;1.10;;;;;;;22.23;91.55;99852.13;4977532;28;20054;-89
2022/08/23 00:31:58;;;;;;;;;;;;;;;22.35;90.34;99851.94;4994989;28;20026;-84
2022/08/23 00:34:24;;;;;;;2.15;1.10;;;;;;;22.37;90.06;99855.22;4993892;28;19964;-87
2022/08/23 00:36:49;;;;;;;5.53;1.30;;;;;;;22.15;91.57;99847.97;4993782;28;20104;-82
2022/08/23 00:39:17;;;;;;;8.23;4.10;;;;;;;22.06;91.91;99845.97;4994074;28;20468;-84
2022/08/23 00:41:44;;;;;;;6.28;1.10;;;;;;;21.99;91.30;99843.50;4978325;28;20109;-86
2022/08/23 00:47:40;;;;;;;2.22;1.00;;;;;;;22.11;91.42;99849.53;5015186;28;20042;-85
2022/08/23 00:51:07;;;;;;;5.07;1.13;;;;;;;21.95;93.79;99839.66;5016341;28;20030;-85
2022/08/23 00:54:11;;;;;;;1.88;1.10;;;;;;;21.72;96.96;99829.09;5021033;23;20063;-85
2022/08/23 00:57:19;;;;;;;4.13;1.25;;;;;;;21.65;98.83;99831.97;4995474;28;20385;-85
2022/08/23 01:00:04;;;;;;;;;;;;;;;21.58;99.65;99833.22;5014382;23;20329;-90
2022/08/23 01:03:21;;;;;;;1.90;1.20;;;;;;;21.51;100.00;99830.72;4992217;28;19941;-85
2022/08/23 01:06:16;;;;;;;6.03;1.30;;;;;;;21.56;100.00;99825.41;5001946;23;20059;-86
2022/08/23 01:09:48;;;;;;;2.47;1.10;;;;;;;21.48;100.00;99830.41;4994550;28;20047;-85
2022/08/23 01:12:45;;;;;;;2.38;0.93;;;;;;;21.44;100.00;99826.59;4984821;28;20031;-88
2022/08/23 01:15:34;;;;;;;2.75;1.45;;;;;;;21.58;100.00;99836.75;4993425;28;20054;-87
2022/08/23 01:18:06;;;;;;;5.32;1.65;;;;;;;21.59;100.00;99835.69;4993378;28;20077;-86
2022/08/23 01:20:47;;;;;;;;;;;;;;;21.73;100.00;99843.41;4957435;28;20059;-86
2022/08/23 01:23:50;;;;;;;2.20;1.27;;;;;;;21.73;100.00;99846.91;4992531;28;19925;-86
2022/08/23 01:26:46;;;;;;;3.78;1.15;;;;;;;21.60;100.00;99850.00;4992923;28;20051;-87
2022/08/23 01:29:27;;;;;;;1.70;1.02;;;;;;;21.54;98.25;99840.22;4976020;28;20139;-87
2022/08/23 01:32:01;;;;;;;5.05;1.40;;;;;;;21.65;96.37;99852.75;4977411;28;20046;-86
2022/08/23 01:34:31;;;;;;;1.83;1.13;;;;;;;21.49;96.19;99854.44;4992683;28;20047;-87
2022/08/23 01:37:06;;;;;;;6.13;1.38;;;;;;;21.55;96.20;99860.69;4978083;28;20047;-88
2022/08/23 01:39:45;;;;;;;7.22;1.30;;;;;;;21.53;96.66;99865.53;5040467;23;20034;-86
2022/08/23 01:42:43;;;;;;;6.00;1.08;;;;;;;21.53;97.47;99862.84;5013070;28;20061;-86
2022/08/23 01:45:27;;;;;;;2.70;1.42;;;;;;;21.57;96.03;99861.28;4995502;28;20046;-88
2022/08/23 01:48:08;;;;;;;3.65;1.42;;;;;;;21.51;96.39;99868.47;5110767;23;20504;-89
2022/08/23 01:50:40;;;;;;;;;;;;;;;21.50;96.26;99866.03;4993450;28;20101;-86
2022/08/23 01:53:19;;;;;;;1.20;1.10;;;;;;;21.43;96.45;99857.31;4996656;28;19921;-88
2022/08/23 01:55:54;;;;;;;3.83;1.40;;;;;;;21.43;95.47;99865.41;5010031;28;20062;-86
2022/08/23 01:58:47;;;;;;;1.65;1.00;;;;;;;21.49;95.66;99853.63;4996045;28;20031;-85
2022/08/23 02:01:29;;;;;;;2.58;1.15;;;;;;;21.61;94.74;99859.69;4997183;28;20038;-87
2022/08/23 02:04:06;;;;;;;12.45;1.17;;;;;;;21.58;93.88;99852.09;4995116;28;20050;-89
2022/08/23 02:06:46;;;;;;;4.72;1.08;;;;;;;21.46;94.46;99863.03;5008459;28;20057;-86
2022/08/23 02:09:52;;;;;;;2.13;1.75;;;;;;;21.38;94.94;99874.22;5013084;28;20100;-87
2022/08/23 02:12:32;;;;;;;2.60;1.02;;;;;;;21.38;96.58;99871.53;5008863;28;20134;-87
2022/08/23 02:15:19;;;;;;;3.22;1.10;;;;;;;21.55;93.98;99876.88;4981371;28;20069;-87
2022/08/23 02:18:07;;;;;;;2.40;1.08;;;;;;;21.47;94.63;99882.72;5009645;23;20133;-86
2022/08/23 02:20:33;;;;;;;1.98;1.17;;;;;;;21.51;94.67;99883.84;5005245;28;20083;-86
2022/08/23 02:23:02;;;;;;;1.02;0.75;;;;;;;21.27;96.65;99877.84;5007093;28;20050;-86
2022/08/23 02:25:40;;;;;;;1.52;0.98;;;;;;;21.14;98.33;99889.75;5012848;28;20058;-85
2022/08/23 02:28:17;;;;;;;4.03;1.15;;;;;;;21.24;97.80;99888.31;5010998;28;20034;-85
2022/08/23 02:30:56;;;;;;;5.78;1.52;;;;;;;21.36;96.80;99891.72;5012874;28;20062;-85
2022/08/23 02:33:41;;;;;;;3.35;1.27;;;;;;;21.20;98.56;99887.16;5012018;28;20042;-85
2022/08/23 02:36:21;;;;;;;3.95;0.90;;;;;;;21.22;99.70;99885.03;5009537;28;20039;-85
2022/08/23 02:39:00;;;;;;;3.55;1.30;;;;;;;21.19;99.80;99899.00;5004781;28;20047;-86
2022/08/23 02:41:32;;;;;;;2.08;1.25;;;;;;;21.29;98.93;99901.84;5011384;28;20034;-85
2022/08/23 02:44:09;;;;;;;1.95;1.15;;;;;;;21.12;99.54;99905.38;4993346;28;20034;-85
2022/08/23 02:46:51;;;;;;;3.58;1.10;;;;;;;21.14;98.89;99900.53;4995574;28;20042;-85
2022/08/23 02:49:22;;;;;;;2.85;1.00;;;;;;;21.07;98.62;99899.88;5007145;28;20051;-88
2022/08/23 02:51:51;;;;;;;1.50;0.98;;;;;;;21.00;98.92;99911.88;4996495;28;20051;-86
2022/08/23 02:54:48;;;;;;;3.47;1.25;;;;;;;21.00;99.75;99909.19;5004547;28;20092;-87
2022/08/23 02:57:26;;;;;;;1.10;1.00;;;;;;;21.24;98.02;99912.56;5011876;28;20050;-89
2022/08/23 02:59:58;;;;;;;2.22;1.08;;;;;;;21.27;98.20;99909.38;4980922;28;20066;-89
2022/08/23 03:02:39;;;;;;;2.20;0.98;;;;;;;21.11;99.06;99911.81;5014697;28;20426;-88
2022/08/23 03:05:12;;;;;;;2.33;1.27;;;;;;;21.10;99.83;99915.59;5008729;28;20042;-88
2022/08/23 03:07:57;;;;;;;4.38;1.00;;;;;;;21.07;99.85;99920.63;5012162;28;20039;-87
2022/08/23 03:10:29;;;;;;;4.55;1.40;;;;;;;20.86;100.00;99924.84;5012078;28;20038;-88
2022/08/23 03:13:28;;;;;;;7.25;1.23;;;;;;;21.05;99.00;99923.56;5012467;28;20441;-88
2022/08/23 03:15:57;;;;;;;5.88;1.20;;;;;;;21.11;98.57;99919.91;5008895;28;20122;-88
2022/08/23 03:18:41;;;;;;;2.10;1.13;;;;;;;20.87;100.00;99928.38;5005897;28;20544;-86
2022/08/23 03:21:30;;;;;;;3.92;1.33;;;;;;;20.65;100.00;99933.63;5009073;28;20050;-86
2022/08/23 03:24:30;;;;;;;4.05;1.20;;;;;;;20.49;100.00;99926.31;5047498;23;20106;-85
2022/08/23 03:27:12;;;;;;;3.08;1.40;;;;;;;20.40;100.00;99930.47;4995977;28;20070;-86
2022/08/23 03:32:19;;;;;;;2.00;1.27;;;;;;;20.60;100.00;99930.84;4989733;28;20047;-86
2022/08/23 03:34:45;;;;;;;3.40;1.40;;;;;;;20.65;100.00;99922.84;4944201;28;20051;-85
2022/08/23 03:37:42;;;;;;;3.95;1.65;;;;;;;20.68;100.00;99927.78;4986349;28;20049;-90
2022/08/23 03:40:09;;;;;;;;;;;;;;;20.56;100.00;99929.69;4975728;28;20459;-90
2022/08/23 03:43:00;;;;;;;2.42;1.42;;;;;;;20.55;100.00;99928.03;4977030;28;19918;-86
2022/08/23 03:45:37;;;;;;;2.55;1.73;;;;;;;20.32;100.00;99934.34;4964437;28;20058;-86
2022/08/23 03:48:54;;;;;;;3.83;1.55;;;;;;;20.29;100.00;99931.31;4975134;28;20058;-87
2022/08/23 03:51:44;;;;;;;4.75;1.65;;;;;;;20.20;100.00;99930.88;4955534;29;20047;-85
2022/08/23 03:54:14;;;;;;;2.53;1.60;;;;;;;20.20;100.00;99930.03;4969496;29;20035;-86
2022/08/23 03:56:59;;;;;;;3.90;1.27;;;;;;;20.21;100.00;99940.56;4967784;29;20441;-86
2022/08/23 04:00:12;;;;;;;3.47;1.20;;;;;;;20.18;100.00;99929.47;4955228;29;20118;-87
2022/08/23 04:03:06;;;;;;;2.47;1.10;;;;;;;20.12;100.00;99942.81;4950245;29;20051;-91
2022/08/23 04:06:07;;;;;;;5.90;1.50;;;;;;;19.98;100.00;99941.47;4967274;29;20047;-87
2022/08/23 04:08:42;;;;;;;6.28;1.50;;;;;;;19.91;100.00;99940.78;4954671;29;20043;-87
2022/08/23 04:11:24;;;;;;;3.90;1.50;;;;;;;19.97;100.00;99945.19;4948926;28;20097;-86
2022/08/23 04:14:25;;;;;;;1.63;1.42;;;;;;;19.98;100.00;99941.47;4987843;23;20503;-86
2022/08/23 04:17:03;;;;;;;3.22;2.00;;;;;;;20.01;100.00;99940.97;5143642;23;20055;-85
2022/08/23 04:19:44;;;;;;;4.30;1.67;;;;;;;19.86;100.00;99942.50;4985395;28;20039;-86
2022/08/23 04:22:13;;;;;;;6.47;1.60;;;;;;;19.71;100.00;99948.41;4993193;28;20069;-86
2022/08/23 04:25:04;;;;;;;3.47;1.90;;;;;;;19.64;100.00;99947.69;4990636;28;20043;-86
2022/08/23 04:30:32;;;;;;;2.13;1.50;;;;;;;19.63;100.00;99951.44;4989609;28;20055;-86
2022/08/23 04:33:31;;;;;;;6.82;2.17;;;;;;;19.56;100.00;99956.94;4990611;28;20094;-86
2022/08/23 04:36:09;;;;;;;5.32;1.90;;;;;;;19.63;100.00;99961.34;4991509;28;20094;-86
2022/08/23 04:38:56;;;;;;;4.82;1.92;;;;;;;19.69;100.00;99961.25;4988197;28;20042;-87
2022/08/23 04:44:52;;;;;;;5.63;2.40;;;;;;;19.72;100.00;99966.13;4992604;28;20090;-84
2022/08/23 04:47:44;;;;;;;9.70;2.28;;;;;;;19.74;100.00;99972.13;4929946;28;20062;-87
2022/08/23 04:50:30;;;;;;;4.95;1.80;;;;;;;19.80;100.00;99973.03;4987623;28;20051;-87
2022/08/23 04:53:29;;;;;;;8.15;1.98;;;;;;;19.86;100.00;99967.53;5003756;23;20078;-87
2022/08/23 05:00:45;;;;;;;3.65;1.67;;;;;;;19.93;100.00;99978.16;5014371;28;20102;-87
2022/08/23 05:03:11;;;;;;;2.28;1.73;;;;;;;19.88;100.00;99980.78;4996345;28;20041;-86
2022/08/23 05:05:37;;;;;;;6.03;1.60;;;;;;;19.88;100.00;99986.97;4989175;28;20108;-87
2022/08/23 05:11:39;;;;;;;5.43;2.03;;;;;;;19.91;100.00;99997.25;4974307;28;20033;-88
2022/08/23 05:14:15;;;;;;;7.93;1.83;;;;;;;20.06;100.00;99994.88;4963738;28;20115;-87
2022/08/23 05:17:07;;;;;;;5.32;1.75;;;;;;;20.39;100.00;99998.81;4981591;28;20090;-86
2022/08/23 05:20:11;;;;;;;2.35;1.40;;;;;;;20.71;100.00;100002.69;4995422;28;20043;-87
2022/08/23 05:22:45;;;;;;;6.40;1.98;;;;;;;20.78;100.00;100003.34;4963665;28;20035;-87
2022/08/23 05:25:58;;;;;;;8.30;1.40;;;;;;;21.25;100.00;99997.72;4918236;29;20060;-86
2022/08/23 05:28:48;;;;;;;1.80;1.30;;;;;;;21.43;99.95;100000.19;4919821;29;20058;-86
2022/08/23 05:31:23;;;;;;;3.00;1.33;;;;;;;21.57;99.04;100006.91;4980047;28;20071;-88
2022/08/23 05:34:20;;;;;;;3.70;1.50;;;;;;;22.06;94.39;100000.63;4982962;28;20042;-87
2022/08/23 05:36:54;;;;;;;4.63;1.30;;;;;;;22.23;92.54;100007.88;4970190;28;20027;-87
2022/08/23 05:39:30;;;;;;;3.35;1.55;;;;;;;22.33;92.10;100013.41;4985558;28;20027;-87
2022/08/23 05:42:22;;;;;;;3.85;1.30;;;;;;;22.40;91.81;100016.72;4995360;28;20074;-86
2022/08/23 05:45:41;;;;;;;2.30;1.42;;;;;;;22.46;91.11;100021.13;4999430;28;20091;-88
2022/08/23 05:48:14;;;;;;;3.38;1.10;;;;;;;22.61;90.50;100024.00;4984491;28;20046;-86
2022/08/23 05:50:54;;;;;;;6.55;1.40;;;;;;;22.99;87.16;100021.22;5000158;28;20050;-86
2022/08/23 05:53:21;;;;;;;2.38;1.30;;;;;;;24.21;80.11;100028.41;4986358;28;20047;-86
2022/08/23 05:55:49;;;;;;;3.47;1.20;;;;;;;24.59;75.78;100030.72;4983959;28;20041;-88
2022/08/23 05:58:19;;;;;;;5.40;1.30;;;;;;;24.29;77.58;100029.81;4968732;28;20018;-87
2022/08/23 06:00:45;;;;;;;5.05;1.58;;;;;;;23.81;80.53;100042.47;5000135;28;20062;-89
2022/08/23 06:03:20;;;;;;;2.72;1.73;;;;;;;24.02;79.65;100046.97;4984303;28;20054;-89
2022/08/23 06:05:56;;;;;;;7.57;1.83;;;;;;;24.31;78.35;100041.16;5057577;23;20038;-86
2022/08/23 06:11:10;;;;;;;9.90;1.52;;;;;;;24.66;76.30;100047.53;4741542;26;20073;-85
2022/08/23 06:13:42;;;;;;;6.57;1.35;;;;;;;24.64;74.54;100051.63;5017171;28;20034;-86
2022/08/23 06:16:11;;;;;;;1.73;1.00;;;;;;;25.39;71.15;100052.91;5002559;28;20062;-86
2022/08/23 06:18:37;;;;;;;5.70;1.40;;;;;;;25.73;68.20;100054.00;5001631;28;20026;-87
2022/08/23 06:21:29;;;;;;;3.50;1.20;;;;;;;26.26;64.98;100055.28;5004513;28;20035;-87
2022/08/23 06:23:55;;;;;;;3.38;1.30;;;;;;;25.87;67.44;100057.78;4999254;28;20042;-88
2022/08/23 06:26:32;;;;;;;6.45;1.75;;;;;;;25.62;68.54;100072.19;4999911;28;20025;-89
2022/08/23 06:29:06;;;;;;;5.65;1.30;;;;;;;25.72;67.58;100071.38;4985417;28;20034;-86
2022/08/23 06:31:44;;;;;;;4.25;1.30;;;;;;;25.89;67.92;100071.06;5017020;28;20038;-89
2022/08/23 06:34:18;;;;;;;4.65;1.60;;;;;;;25.88;68.10;100075.72;4985150;28;20068;-88
2022/08/23 06:37:05;;;;;;;8.23;1.92;;;;;;;26.03;67.29;100078.41;5017219;28;20053;-90
2022/08/23 06:39:56;;;;;;;4.40;1.88;;;;;;;26.22;67.43;100077.88;4996842;28;20046;-87
2022/08/23 06:42:47;;;;;;;5.13;2.63;;;;;;;26.48;65.54;100084.84;4989864;28;20069;-86
2022/08/23 06:45:37;;;;;;;5.53;2.17;;;;;;;27.10;64.03;100078.88;4968918;28;20058;-88
2022/08/23 06:48:09;;;;;;;6.72;2.80;;;;;;;26.72;65.60;100075.75;4985232;28;20057;-89
2022/08/23 06:50:40;;;;;;;5.70;2.20;;;;;;;27.80;61.04;100080.28;4999574;28;20041;-89
2022/08/23 06:53:24;;;;;;;5.75;3.55;;;;;;;27.99;59.67;100089.34;5015076;28;20045;-91
2022/08/23 06:56:15;;;;;;;8.43;4.43;;;;;;;27.18;63.39;100084.50;4999117;28;20054;-89
2022/08/23 06:59:13;;;;;;;13.45;5.03;;;;;;;27.26;64.99;100085.03;4996889;28;20046;-92
2022/08/23 07:02:00;;;;;;;17.80;5.88;;;;;;;27.36;64.71;100084.94;5002221;28;20101;-89
2022/08/23 07:04:52;;;;;;;12.85;5.55;;;;;;;27.79;62.78;100083.28;5002676;28;20050;-92
2022/08/23 07:07:43;;;;;;;11.88;4.90;;;;;;;27.90;62.82;100091.09;5003808;28;20121;-88
2022/08/23 07:10:10;;;;;;;10.50;5.47;;;;;;;27.96;61.56;100095.38;4998943;28;20030;-85
2022/08/23 07:12:43;;;;;;;11.40;5.63;;;;;;;27.94;61.35;100094.84;4983469;28;20038;-90
2022/08/23 07:15:14;;;;;;;8.65;5.18;;;;;;;28.08;60.11;100098.56;4995915;28;20057;-90
2022/08/23 07:17:43;;;;;;;7.18;4.43;;;;;;;28.29;59.94;100111.97;5003107;28;20039;-87
2022/08/23 07:20:14;;;;;;;16.42;5.07;;;;;;;28.06;59.52;100106.22;4967657;28;20030;-90
2022/08/23 07:22:48;;;;;;;12.38;4.50;;;;;;;28.26;59.65;100109.84;4984766;28;20030;-92
2022/08/23 07:25:14;;;;;;;14.05;4.65;;;;;;;28.26;60.08;100112.56;4966158;28;20048;-89
2022/08/23 07:27:44;;;;;;;16.23;6.18;;;;;;;27.99;61.79;100116.59;5015337;28;20022;-88
2022/08/23 07:30:12;;;;;;;13.35;5.90;;;;;;;28.15;61.70;100115.38;4965830;28;20038;-88
2022/08/23 07:32:39;;;;;;;11.02;5.80;;;;;;;28.32;60.03;100122.31;5012651;28;20030;-84
2022/08/23 07:35:34;;;;;;;13.10;5.95;;;;;;;28.43;60.65;100115.66;4973232;28;20082;-85
2022/08/23 07:37:59;;;;;;;12.80;6.10;;;;;;;28.63;60.02;100118.16;4992633;28;20045;-85
2022/08/23 07:40:31;;;;;;;8.17;6.13;;;;;;;28.69;60.29;100126.00;4991592;28;20045;-83
2022/08/23 07:42:58;;;;;;;16.88;7.28;;;;;;;28.98;59.05;100128.63;4992928;28;20073;-80
2022/08/23 07:45:24;;;;;;;11.20;7.07;;;;;;;28.51;60.32;100129.44;4993158;28;20042;-81
2022/08/23 07:48:01;;;;;;;12.90;6.07;;;;;;;29.03;59.69;100128.59;5004923;28;20034;-80
2022/08/23 07:50:33;;;;;;;11.85;6.70;;;;;;;29.24;57.50;100126.38;4986272;28;20054;-88
2022/08/23 07:53:38;;;;;;;9.38;6.28;;;;;;;29.24;57.91;100127.19;5012949;28;20026;-85
2022/08/23 07:56:44;;;;;;;12.68;7.70;;;;;;;29.31;58.29;100136.94;5015885;28;20022;-87
2022/08/23 07:59:36;;;;;;;11.50;6.35;;;;;;;29.53;57.16;100137.97;4997064;28;20500;-91
2022/08/23 08:02:28;;;;;;;16.88;6.13;;;;;;;29.52;57.55;100143.75;4986491;28;20068;-85
2022/08/23 08:05:56;;;;;;;11.77;6.28;;;;;;;29.91;55.33;100146.97;5012677;28;20110;-87
2022/08/23 08:08:48;;;;;;;15.07;6.13;;;;;;;30.22;53.34;100144.53;5013744;28;20065;-87
2022/08/23 08:11:25;;;;;;;9.55;6.05;;;;;;;30.08;54.17;100144.50;4962829;28;20069;-83
2022/08/23 08:14:04;;;;;;;13.32;6.25;;;;;;;30.46;54.24;100147.91;4998184;28;20056;-84
2022/08/23 08:16:49;;;;;;;15.65;6.35;;;;;;;30.48;52.77;100156.66;4962084;28;20045;-84
2022/08/23 08:19:38;;;;;;;11.40;5.32;;;;;;;30.91;51.32;100154.41;4998803;28;20051;-86
2022/08/23 08:22:26;;;;;;;7.45;5.35;;;;;;;30.96;51.09;100162.53;5012032;28;20074;-87
2022/08/23 08:25:14;;;;;;;14.18;5.50;;;;;;;31.09;50.02;100161.72;4997085;28;20073;-86
2022/08/23 08:27:57;;;;;;;12.63;5.50;;;;;;;31.47;49.13;100158.69;4998129;28;20034;-85
2022/08/23 08:30:38;;;;;;;12.68;5.30;;;;;;;31.44;47.99;100156.56;4999879;28;20038;-86
2022/08/23 08:33:06;;;;;;;7.10;4.93;;;;;;;31.14;47.56;100161.63;4998042;28;20042;-87
2022/08/23 08:36:18;;;;;;;10.60;5.28;;;;;;;31.02;49.31;100169.56;4996470;28;20077;-85
2022/08/23 08:39:18;;;;;;;19.33;5.32;;;;;;;31.42;46.77;100164.31;5012671;28;20089;-86
2022/08/23 08:42:32;;;;;;;9.98;5.05;;;;;;;31.70;45.08;100163.13;4995402;28;20037;-83
2022/08/23 08:45:47;;;;;;;17.92;5.63;;;;;;;31.30;44.96;100162.09;4993178;28;20097;-83
2022/08/23 08:48:25;;;;;;;8.25;4.80;;;;;;;31.41;46.14;100168.16;4997086;28;20062;-85
2022/08/23 08:51:28;;;;;;;8.73;5.20;;;;;;;31.47;45.50;100155.97;5010923;28;20102;-87
2022/08/23 08:54:07;;;;;;;7.60;4.80;;;;;;;31.85;44.23;100173.72;4999743;28;20061;-83
2022/08/23 08:57:53;;;;;;;9.33;5.07;;;;;;;32.52;43.36;100168.16;5013065;28;20038;-84
2022/08/23 09:00:59;;;;;;;12.43;5.05;;;;;;;32.73;41.68;100180.22;5009638;28;20061;-81
2022/08/23 09:04:57;;;;;;;12.93;4.15;;;;;;;33.17;40.70;100180.09;4961800;29;20133;-83
2022/08/23 09:08:02;;;;;;;11.27;5.47;;;;;;;33.31;40.06;100187.38;4959487;29;20113;-83
2022/08/23 09:16:16;;;;;;;;;;;;;;;33.33;40.35;100190.59;3906967;26;20027;-85
2022/08/23 09:18:50;;;;;;;9.13;3.35;;;;;;;33.69;38.79;100191.13;4997419;28;19922;-84
2022/08/23 09:22:04;;;;;;;10.32;3.47;;;;;;;33.21;38.37;100189.28;4987253;28;20055;-88
2022/08/23 09:25:09;;;;;;;8.77;3.58;;;;;;;33.32;36.92;100197.22;4999341;28;20077;-82
2022/08/23 09:28:02;;;;;;;4.38;3.20;;;;;;;33.26;38.13;100197.38;4983355;28;20031;-84
2022/08/23 09:34:19;;;;;;;10.88;2.65;;;;;;;33.47;37.24;100196.75;4979252;29;20039;-83
2022/08/23 09:45:48;;;;;;;8.50;2.90;;;;;;;33.06;37.22;100195.19;3032842;26;2232775;-83
2022/08/23 09:48:44;;;;;;;9.82;2.40;;;;;;;33.78;34.52;100197.44;4972561;29;20054;-81
2022/08/23 09:51:55;;;;;;;5.25;2.30;;;;;;;34.13;35.18;100199.06;4982007;28;20081;-83
2022/08/23 09:54:34;;;;;;;12.43;2.78;;;;;;;34.37;33.56;100189.47;4976819;28;20045;-83
2022/08/23 09:57:12;;;;;;;6.40;2.55;;;;;;;34.05;34.97;100202.59;4980815;28;20045;-83
2022/08/23 10:00:22;;;;;;;4.55;2.65;;;;;;;34.02;33.90;100192.25;4980591;28;20038;-81
2022/08/23 10:03:24;;;;;;;6.15;1.63;;;;;;;34.51;32.35;100190.03;4992940;28;20039;-82
2022/08/23 10:06:29;;;;;;;4.40;1.40;;;;;;;34.80;32.18;100194.84;4979461;28;20027;-82
2022/08/23 10:09:07;;;;;;;5.25;1.02;;;;;;;34.54;31.95;100203.97;4974633;28;20034;-86
2022/08/23 10:11:44;;;;;;;3.15;1.10;;;;;;;34.87;30.42;100195.91;4976265;28;20046;-81
2022/08/23 10:14:34;;;;;;;7.35;1.10;;;;;;;35.25;29.21;100204.16;4988973;28;20051;-82
2022/08/23 10:17:43;;;;;;;3.90;1.20;;;;;;;34.42;29.51;100200.28;4966205;28;20042;-83
2022/08/23 10:20:36;;;;;;;2.45;1.00;;;;;;;33.83;29.81;100200.03;4976339;28;20051;-79
2022/08/23 10:23:55;;;;;;;2.58;0.90;;;;;;;34.09;29.78;100198.06;4977510;28;20129;-85
2022/08/23 10:26:40;;;;;;;1.70;1.00;;;;;;;34.73;29.79;100198.91;4987418;28;20046;-81
2022/08/23 10:29:42;;;;;;;3.03;1.02;;;;;;;34.55;28.79;100200.06;4961211;28;20062;-82
2022/08/23 10:32:37;;;;;;;6.47;1.13;;;;;;;34.23;28.28;100198.72;4973223;28;20059;-80
2022/08/23 10:35:51;;;;;;;3.08;1.08;;;;;;;34.00;28.61;100197.28;4985673;28;20100;-80
2022/08/23 10:38:38;;;;;;;;;;;;;;;34.18;28.88;100198.88;4978637;28;20039;-82
2022/08/23 10:42:07;;;;;;;5.45;1.30;;;;;;;33.55;29.86;100205.00;4987800;28;19918;-82
2022/08/23 10:45:14;;;;;;;2.15;0.90;;;;;;;33.71;31.45;100194.34;4898300;29;20056;-81
2022/08/23 10:48:01;;;;;;;2.60;0.88;;;;;;;33.44;31.94;100197.41;4948977;28;20046;-83
2022/08/23 10:50:40;;;;;;;3.72;0.95;;;;;;;33.55;32.04;100205.00;4967856;28;20038;-82
2022/08/23 10:53:49;;;;;;;;;;;;;;;33.89;30.97;100190.47;4959717;28;20053;-80
2022/08/23 10:56:51;;;;;;;2.58;1.30;;;;;;;34.61;29.78;100203.47;4974764;28;19929;-81
2022/08/23 10:59:58;;;;;;;3.78;1.20;;;;;;;35.06;29.81;100193.56;4983218;28;20047;-82
2022/08/23 11:02:41;;;;;;;2.42;1.13;;;;;;;34.57;30.17;100186.00;4989947;28;20058;-83
2022/08/23 11:05:43;;;;;;;1.88;1.35;;;;;;;33.69;30.90;100182.88;4973092;28;20034;-85
2022/08/23 11:08:47;;;;;;;5.25;1.20;;;;;;;34.35;29.90;100194.47;4994082;28;20043;-87
2022/08/23 11:12:13;;;;;;;1.95;1.10;;;;;;;34.62;28.43;100194.09;4987406;23;20073;-80
2022/08/23 11:15:33;;;;;;;2.50;0.93;;;;;;;34.03;27.31;100193.88;4914960;29;20053;-80
2022/08/23 11:18:30;;;;;;;1.48;0.80;;;;;;;34.03;28.76;100188.38;4924703;29;20055;-81
2022/08/23 11:21:32;;;;;;;3.60;1.10;;;;;;;33.64;29.37;100196.81;4922839;29;20040;-81
2022/08/23 11:24:25;;;;;;;6.18;1.00;;;;;;;33.84;29.54;100189.84;4935420;28;20047;-80
2022/08/23 11:27:50;;;;;;;2.20;0.90;;;;;;;33.84;28.63;100187.88;4973214;29;20043;-81
2022/08/23 11:30:48;;;;;;;1.88;0.88;;;;;;;34.80;27.95;100192.91;4975094;29;20131;-80
2022/08/23 11:33:47;;;;;;;7.15;0.90;;;;;;;34.80;28.32;100195.66;4957588;29;20063;-80
2022/08/23 11:36:36;;;;;;;3.60;1.33;;;;;;;34.63;29.18;100180.00;4925080;29;20051;-80
2022/08/23 11:39:54;;;;;;;2.67;1.08;;;;;;;34.37;28.95;100187.50;4971240;29;20038;-81
2022/08/23 11:42:36;;;;;;;5.45;1.20;;;;;;;33.89;29.61;100192.41;5001069;23;20086;-82
2022/08/23 11:45:45;;;;;;;2.38;1.23;;;;;;;33.74;29.55;100191.00;4973483;28;20038;-79
2022/08/23 11:48:56;;;;;;;4.38;1.00;;;;;;;33.60;29.80;100184.81;4978829;28;20493;-80
2022/08/23 11:51:41;;;;;;;3.08;1.00;;;;;;;32.81;30.25;100195.94;4984537;28;20043;-82
2022/08/23 11:54:59;;;;;;;2.10;1.17;;;;;;;31.92;30.59;100189.72;4994657;28;20043;-86
2022/08/23 12:02:03;;;;;;;3.15;1.05;;;;;;;31.04;32.88;100181.00;4942170;29;20044;-83
2022/08/23 12:04:54;;;;;;;3.63;1.50;;;;;;;30.96;33.27;100186.38;4943657;28;20067;-83
2022/08/23 12:08:12;;;;;;;5.97;1.23;;;;;;;31.24;34.40;100186.03;4954101;28;20051;-83
2022/08/23 12:11:12;;;;;;;3.30;1.20;;;;;;;30.87;33.52;100178.03;4959720;28;20051;-82
2022/08/23 12:20:28;;;;;;;2.73;1.40;;;;;;;30.96;33.66;100168.00;2230661;26;20074;-84
2022/08/23 12:23:23;;;;;;;3.38;1.10;;;;;;;31.04;33.89;100167.31;4998719;28;20308;-89
2022/08/23 12:26:25;;;;;;;22.23;14.97;;;;;;;31.11;32.23;100170.44;4996213;28;20057;-83
2022/08/23 12:31:35;;;;;;;2.40;1.47;;;;;;;30.93;33.56;100165.88;5050895;23;20086;-86
2022/08/23 12:34:33;;;;;;;2.57;1.53;;;;;;;31.05;34.49;100163.47;5015577;28;20054;-84
2022/08/23 12:37:30;;;;;;;4.03;1.20;;;;;;;30.90;34.90;100161.00;5016865;28;20051;-90
2022/08/23 12:40:33;;;;;;;5.43;1.40;;;;;;;31.12;33.91;100155.63;5528125;23;20061;-86
2022/08/23 12:43:58;;;;;;;2.13;1.13;;;;;;;31.23;34.58;100156.22;5102284;23;20049;-88
2022/08/23 12:46:52;;;;;;;2.42;1.10;;;;;;;30.89;33.76;100159.38;5096676;23;20058;-86
2022/08/23 12:50:15;;;;;;;3.30;1.10;;;;;;;30.94;34.04;100153.81;5022588;28;20022;-89
2022/08/23 12:56:26;;;;;;;1.60;1.13;;;;;;;31.03;32.87;100157.47;5011772;28;20030;-86
2022/08/23 13:02:35;;;;;;;5.07;1.40;;;;;;;31.17;33.49;100147.31;5094490;23;20069;-90
2022/08/23 13:13:43;;;;;;;2.63;1.10;;;;;;;30.76;33.40;100144.59;5001233;28;20074;-89
2022/08/23 13:19:40;;;;;;;2.03;0.98;;;;;;;30.75;33.79;100134.78;5207097;23;20050;-87
2022/08/23 13:25:51;;;;;;;2.75;1.10;;;;;;;31.06;32.96;100129.47;4875615;26;20084;-88
2022/08/23 13:29:26;;;;;;;3.03;0.98;;;;;;;31.11;33.40;100132.13;4974943;29;20067;-87
2022/08/23 13:35:23;;;;;;;1.85;1.13;;;;;;;30.98;34.72;100130.22;5059982;23;20062;-87
2022/08/23 13:38:34;;;;;;;4.00;1.40;;;;;;;31.01;34.39;100126.88;5015720;28;20045;-87
2022/08/23 13:41:22;;;;;;;2.10;1.17;;;;;;;31.12;33.60;100122.78;4921133;29;20076;-88
2022/08/23 13:43:51;;;;;;;2.53;1.20;;;;;;;30.78;33.66;100127.88;4921987;29;20032;-87
2022/08/23 13:46:50;;;;;;;3.90;1.48;;;;;;;30.64;32.70;100124.31;4938506;29;20051;-88
2022/08/23 13:49:54;;;;;;;5.07;1.50;;;;;;;30.68;32.99;100122.59;5125635;23;20118;-86
2022/08/23 13:53:06;;;;;;;;;;;;;;;30.66;32.81;100125.63;4958821;29;20062;-86
2022/08/23 13:58:41;;;;;;;3.40;1.00;;;;;;;30.68;32.92;100115.22;3042530;26;20078;-88
2022/08/23 14:23:51;;;;;;;5.30;1.20;;;;;;;30.54;33.97;100108.13;4247665;23;20054;-85
2022/08/23 14:26:30;;;;;;;4.55;1.40;;;;;;;30.84;30.88;100114.88;4923795;29;20063;-82
2022/08/23 14:29:43;;;;;;;4.10;0.88;;;;;;;30.77;30.30;100115.28;4935604;29;20063;-85
2022/08/23 14:32:37;;;;;;;1.63;0.85;;;;;;;30.54;29.70;100116.31;4926847;29;20111;-85
2022/08/23 14:35:18;;;;;;;1.90;0.95;;;;;;;30.71;29.63;100111.06;4944335;29;20063;-85
2022/08/23 14:38:20;;;;;;;1.35;0.80;;;;;;;30.57;28.19;100110.25;4975928;29;20044;-84
2022/08/23 14:41:23;;;;;;;2.17;0.80;;;;;;;30.53;29.03;100111.94;4974851;29;20035;-84
2022/08/23 14:44:12;;;;;;;1.85;0.60;;;;;;;30.44;27.37;100106.38;4958281;29;20051;-85
2022/08/23 14:47:26;;;;;;;1.20;0.70;;;;;;;30.59;27.47;100108.81;4974814;29;20403;-84